Time;durP1;ratioP1;P1;durP2;ratioP2;P2;SDS_P1;SDS_P2;PMS_P1;PMS_P2;Temp;Humidity;BMP_temperature;BMP_pressure;BME280_temperature;BME280_humidity;BME280_pressure;Samples;Min_cycle;Max_cycle;Signal;HPM_P1;HPM_P2
2021/11/25 00:01:47;;;;;;;39.95;22.00;;;6.60;99.90;;;;;;5056303;28;20048;-83
2021/11/25 00:04:12;;;;;;;39.63;23.52;;;6.60;99.90;;;;;;5073908;28;20055;-83
2021/11/25 00:06:38;;;;;;;41.50;24.50;;;6.60;99.90;;;;;;5056616;28;20080;-83
2021/11/25 00:09:04;;;;;;;41.40;23.38;;;6.60;99.90;;;;;;5056642;28;20045;-84
2021/11/25 00:11:30;;;;;;;42.65;24.08;;;6.60;99.90;;;;;;5039563;28;20481;-83
2021/11/25 00:13:55;;;;;;;45.38;25.02;;;6.60;99.90;;;;;;5056053;28;20107;-84
2021/11/25 00:16:21;;;;;;;46.38;25.02;;;6.60;99.90;;;;;;5056151;28;20135;-83
2021/11/25 00:18:47;;;;;;;49.08;26.10;;;6.60;99.90;;;;;;5039530;28;20073;-84
2021/11/25 00:21:13;;;;;;;43.70;24.80;;;6.60;99.90;;;;;;5040186;28;20040;-84
2021/11/25 00:23:41;;;;;;;41.75;23.75;;;6.50;99.90;;;;;;5055868;28;20041;-83
2021/11/25 00:26:07;;;;;;;44.45;24.98;;;6.50;99.90;;;;;;5055976;28;20555;-84
2021/11/25 00:28:34;;;;;;;46.70;25.20;;;6.50;99.90;;;;;;5074140;28;20052;-83
2021/11/25 00:31:00;;;;;;;50.25;26.63;;;6.50;99.90;;;;;;5055874;28;20055;-83
2021/11/25 00:33:27;;;;;;;47.22;25.80;;;6.50;99.90;;;;;;5039254;28;20548;-82
2021/11/25 00:35:54;;;;;;;54.65;28.02;;;6.50;99.90;;;;;;5040028;28;20056;-86
2021/11/25 00:38:19;;;;;;;48.30;25.90;;;6.50;99.90;;;;;;5055544;28;20482;-83
2021/11/25 00:40:46;;;;;;;48.47;25.58;;;6.40;99.90;;;;;;5039524;28;20182;-83
2021/11/25 00:43:12;;;;;;;50.95;26.33;;;6.40;99.90;;;;;;5039413;28;20049;-83
2021/11/25 00:45:38;;;;;;;51.13;25.67;;;6.40;99.90;;;;;;5072334;28;20048;-82
2021/11/25 00:48:04;;;;;;;51.45;27.65;;;6.40;99.90;;;;;;5055525;28;20044;-83
2021/11/25 00:50:30;;;;;;;51.10;27.73;;;6.30;99.90;;;;;;5039380;28;20056;-83
2021/11/25 00:52:56;;;;;;;49.30;26.55;;;6.40;99.90;;;;;;5055843;28;20047;-84
2021/11/25 00:55:22;;;;;;;48.30;26.17;;;6.30;99.90;;;;;;5039064;28;20044;-83
2021/11/25 00:57:47;;;;;;;52.50;27.45;;;6.30;99.90;;;;;;5055458;28;20478;-83
2021/11/25 01:00:16;;;;;;;45.53;26.15;;;6.30;99.90;;;;;;5055747;28;20056;-84
2021/11/25 01:02:43;;;;;;;48.15;27.17;;;6.30;99.90;;;;;;5056372;28;20060;-83
2021/11/25 01:05:10;;;;;;;52.58;28.38;;;6.30;99.90;;;;;;5055357;28;20131;-85
2021/11/25 01:07:37;;;;;;;50.50;27.98;;;6.30;99.90;;;;;;5038888;28;20040;-84
2021/11/25 01:10:05;;;;;;;51.08;26.88;;;6.30;99.90;;;;;;5055709;28;20098;-84
2021/11/25 01:12:31;;;;;;;50.83;28.08;;;6.30;99.90;;;;;;5055536;28;20048;-83
2021/11/25 01:14:57;;;;;;;54.55;27.52;;;6.30;99.90;;;;;;5054956;28;20052;-84
2021/11/25 01:17:23;;;;;;;54.90;28.52;;;6.30;99.90;;;;;;5055448;28;20473;-83
2021/11/25 01:19:49;;;;;;;52.58;28.10;;;6.30;99.90;;;;;;5073155;28;20044;-83
2021/11/25 01:22:15;;;;;;;53.92;27.67;;;6.30;99.90;;;;;;5056074;28;20437;-84
2021/11/25 01:24:41;;;;;;;51.50;28.10;;;6.30;99.90;;;;;;5039574;28;20182;-83
2021/11/25 01:27:07;;;;;;;59.97;30.10;;;6.30;99.90;;;;;;5059130;28;20094;-83
2021/11/25 01:29:32;;;;;;;58.10;29.40;;;6.30;99.90;;;;;;5060149;28;20135;-83
2021/11/25 01:31:58;;;;;;;58.97;30.55;;;6.30;99.90;;;;;;5059239;28;20045;-84
2021/11/25 01:34:24;;;;;;;56.08;29.25;;;6.30;99.90;;;;;;5042851;28;20083;-83
2021/11/25 01:36:50;;;;;;;58.78;30.45;;;6.30;99.90;;;;;;5059196;28;20544;-84
2021/11/25 01:39:17;;;;;;;60.00;30.85;;;6.30;99.90;;;;;;5059780;28;20383;-84
2021/11/25 01:41:44;;;;;;;66.47;32.97;;;6.20;99.90;;;;;;5059085;28;20076;-84
2021/11/25 01:44:10;;;;;;;61.25;30.17;;;6.30;99.90;;;;;;5058976;28;20083;-84
2021/11/25 01:46:36;;;;;;;63.33;32.30;;;6.40;99.90;;;;;;5059031;28;20079;-83
2021/11/25 01:49:03;;;;;;;61.67;31.20;;;6.30;99.90;;;;;;5058847;28;20036;-83
2021/11/25 01:51:29;;;;;;;58.30;30.83;;;6.30;99.90;;;;;;5042364;28;20405;-84
2021/11/25 01:53:55;;;;;;;63.40;32.35;;;6.30;99.90;;;;;;5058760;28;20036;-86
2021/11/25 01:56:21;;;;;;;61.50;31.58;;;6.30;99.90;;;;;;5058406;28;20049;-83
2021/11/25 01:58:48;;;;;;;60.45;31.05;;;6.30;99.90;;;;;;5042199;28;20048;-84
2021/11/25 02:01:16;;;;;;;62.75;31.00;;;6.20;99.90;;;;;;5041888;28;20037;-84
2021/11/25 02:03:42;;;;;;;62.35;31.00;;;6.20;99.90;;;;;;5042096;28;20226;-83
2021/11/25 02:06:09;;;;;;;58.25;30.13;;;6.20;99.90;;;;;;5041903;28;20051;-83
2021/11/25 02:08:36;;;;;;;58.15;30.42;;;6.20;99.90;;;;;;5041624;28;20045;-84
2021/11/25 02:11:03;;;;;;;60.55;30.20;;;6.20;99.90;;;;;;5058376;28;20127;-84
2021/11/25 02:13:29;;;;;;;66.40;31.70;;;6.20;99.90;;;;;;5042205;28;20048;-84
2021/11/25 02:15:56;;;;;;;61.97;31.50;;;6.20;99.90;;;;;;5058441;28;20122;-85
2021/11/25 02:18:24;;;;;;;60.47;31.23;;;6.20;99.90;;;;;;5058436;28;20126;-83
2021/11/25 02:20:53;;;;;;;65.03;31.17;;;6.20;99.90;;;;;;5058169;28;20128;-83
2021/11/25 02:23:21;;;;;;;63.17;30.15;;;6.20;99.90;;;;;;5058417;28;20131;-83
2021/11/25 02:25:48;;;;;;;64.57;31.02;;;6.20;99.90;;;;;;5042367;28;20049;-84
2021/11/25 02:28:21;;;;;;;60.28;30.58;;;6.20;99.90;;;;;;5057901;28;20045;-83
2021/11/25 02:30:48;;;;;;;73.90;33.75;;;6.10;99.90;;;;;;5041761;28;20117;-83
2021/11/25 02:33:15;;;;;;;66.32;32.40;;;6.10;99.90;;;;;;5058035;28;20061;-84
2021/11/25 02:35:42;;;;;;;67.70;33.00;;;6.20;99.90;;;;;;5057649;28;20478;-83
2021/11/25 02:38:09;;;;;;;75.90;34.38;;;6.20;99.90;;;;;;5058614;28;20048;-84
2021/11/25 02:40:45;;;;;;;72.75;34.85;;;6.20;99.90;;;;;;5041681;28;20366;-84
2021/11/25 02:43:13;;;;;;;74.35;33.70;;;6.20;99.90;;;;;;5058640;28;20187;-83
2021/11/25 02:45:57;;;;;;;72.20;33.80;;;6.20;99.90;;;;;;5057965;28;20043;-83
2021/11/25 02:48:26;;;;;;;72.60;32.72;;;6.20;99.90;;;;;;5057980;28;20047;-83
2021/11/25 02:50:54;;;;;;;72.95;33.35;;;6.20;99.90;;;;;;5057843;28;20084;-84
2021/11/25 02:53:22;;;;;;;72.03;34.08;;;6.20;99.90;;;;;;5057531;28;20074;-83
2021/11/25 02:55:49;;;;;;;74.82;35.40;;;6.20;99.90;;;;;;5074145;28;20045;-84
2021/11/25 02:58:15;;;;;;;70.88;34.42;;;6.20;99.90;;;;;;5020540;28;20440;-83
2021/11/25 03:00:46;;;;;;;73.63;34.00;;;6.20;99.90;;;;;;5037545;28;20055;-84
2021/11/25 03:03:15;;;;;;;82.43;34.92;;;6.20;99.90;;;;;;5037538;28;20515;-84
2021/11/25 03:05:43;;;;;;;79.15;36.45;;;6.30;99.90;;;;;;5037564;28;20045;-84
2021/11/25 03:08:10;;;;;;;75.63;35.42;;;6.40;99.90;;;;;;5038000;28;20433;-83
2021/11/25 03:10:46;;;;;;;73.47;33.85;;;6.30;99.90;;;;;;5037245;28;20053;-84
2021/11/25 03:13:14;;;;;;;73.82;33.80;;;6.30;99.90;;;;;;5020933;28;20135;-83
2021/11/25 03:15:41;;;;;;;81.30;35.55;;;6.30;99.90;;;;;;5020805;28;20053;-83
2021/11/25 03:18:10;;;;;;;74.68;34.03;;;6.30;99.90;;;;;;5020670;28;20048;-83
2021/11/25 03:20:37;;;;;;;81.05;36.47;;;6.20;99.90;;;;;;5036998;28;20049;-84
2021/11/25 03:23:05;;;;;;;75.25;33.90;;;6.20;99.90;;;;;;5037886;28;20482;-83
2021/11/25 03:25:33;;;;;;;75.40;33.72;;;6.20;99.90;;;;;;5020748;28;20045;-83
2021/11/25 03:27:59;;;;;;;70.10;33.22;;;6.10;99.90;;;;;;5036926;28;20102;-85
2021/11/25 03:30:25;;;;;;;76.85;34.80;;;6.20;99.90;;;;;;5037204;28;20064;-83
2021/11/25 03:32:51;;;;;;;76.75;34.78;;;6.10;99.90;;;;;;5037822;28;20386;-85
2021/11/25 03:35:17;;;;;;;70.93;33.20;;;6.10;99.90;;;;;;5055276;28;20052;-84
2021/11/25 03:37:43;;;;;;;69.18;33.08;;;6.10;99.90;;;;;;5037610;28;20531;-83
2021/11/25 03:40:10;;;;;;;76.63;34.75;;;6.10;99.90;;;;;;5036856;28;20136;-84
2021/11/25 03:42:36;;;;;;;78.05;35.58;;;6.10;99.90;;;;;;5036939;28;20049;-83
2021/11/25 03:45:03;;;;;;;79.53;35.60;;;6.20;99.90;;;;;;5036803;28;20053;-84
2021/11/25 03:47:29;;;;;;;82.65;37.47;;;6.20;99.90;;;;;;5039648;28;20481;-83
2021/11/25 03:49:55;;;;;;;78.90;36.42;;;6.20;99.90;;;;;;5056711;28;20052;-84
2021/11/25 03:52:21;;;;;;;80.70;34.95;;;6.20;99.90;;;;;;5074736;28;20485;-84
2021/11/25 03:54:46;;;;;;;97.00;39.20;;;6.20;99.90;;;;;;5056602;28;20558;-84
2021/11/25 03:57:12;;;;;;;79.80;36.38;;;6.20;99.90;;;;;;5055874;28;20100;-84
2021/11/25 03:59:38;;;;;;;82.72;36.20;;;6.20;99.90;;;;;;5039806;28;20094;-84
2021/11/25 04:02:04;;;;;;;86.00;37.53;;;6.20;99.90;;;;;;5056082;28;20131;-84
2021/11/25 04:04:30;;;;;;;84.55;38.35;;;6.20;99.90;;;;;;5055770;28;20098;-84
2021/11/25 04:06:56;;;;;;;80.95;35.78;;;6.20;99.90;;;;;;5074304;28;20044;-83
2021/11/25 04:09:21;;;;;;;88.50;37.53;;;6.20;99.90;;;;;;5056744;28;20048;-83
2021/11/25 04:11:50;;;;;;;91.15;37.75;;;6.20;99.90;;;;;;5057035;28;20139;-83
2021/11/25 04:14:16;;;;;;;87.53;37.65;;;6.20;99.90;;;;;;5056029;28;20056;-84
2021/11/25 04:16:42;;;;;;;76.43;33.47;;;6.20;99.90;;;;;;5056121;28;20102;-83
2021/11/25 04:19:07;;;;;;;83.20;35.70;;;6.40;99.90;;;;;;5055992;28;20052;-83
2021/11/25 04:21:33;;;;;;;83.80;36.72;;;6.40;99.90;;;;;;5039531;28;20080;-83
2021/11/25 04:23:59;;;;;;;87.28;37.40;;;6.40;99.90;;;;;;5056082;28;20523;-87
2021/11/25 04:26:24;;;;;;;87.78;37.95;;;6.40;99.90;;;;;;5055888;28;20076;-84
2021/11/25 04:28:50;;;;;;;95.57;41.83;;;6.40;99.90;;;;;;5056044;28;20486;-84
2021/11/25 04:36:45;;;;;;;89.95;38.80;;;6.40;99.90;;;;;;5056030;28;20297;-83
2021/11/25 04:39:12;;;;;;;92.05;40.15;;;6.50;99.90;;;;;;5056266;28;20124;-83
2021/11/25 04:41:38;;;;;;;88.38;38.15;;;6.50;99.90;;;;;;5040029;28;20462;-84
2021/11/25 04:44:04;;;;;;;100.22;40.50;;;6.50;99.90;;;;;;5055436;28;20040;-84
2021/11/25 04:46:30;;;;;;;95.32;38.47;;;6.40;99.90;;;;;;5056572;28;20078;-84
2021/11/25 04:48:55;;;;;;;93.68;38.05;;;6.40;99.90;;;;;;5055765;28;20476;-83
2021/11/25 04:51:21;;;;;;;90.38;38.85;;;6.60;99.90;;;;;;5038764;28;20040;-84
2021/11/25 04:53:47;;;;;;;89.60;39.05;;;6.50;99.90;;;;;;5055643;28;20044;-83
2021/11/25 04:56:13;;;;;;;89.57;38.65;;;6.50;99.90;;;;;;5038659;28;20068;-84
2021/11/25 04:58:39;;;;;;;84.97;38.85;;;6.50;99.90;;;;;;5039793;28;20053;-84
2021/11/25 05:01:04;;;;;;;89.68;40.15;;;6.50;99.90;;;;;;5055532;28;20052;-84
2021/11/25 05:03:30;;;;;;;91.68;38.40;;;6.50;99.90;;;;;;5073684;28;20107;-83
2021/11/25 05:05:56;;;;;;;84.88;36.33;;;6.50;99.90;;;;;;5055487;28;20041;-84
2021/11/25 05:08:22;;;;;;;91.40;41.17;;;6.50;99.90;;;;;;5039394;28;20140;-84
2021/11/25 05:10:49;;;;;;;82.78;36.17;;;6.50;99.90;;;;;;5056196;28;20461;-84
2021/11/25 05:13:15;;;;;;;90.97;39.20;;;6.40;99.90;;;;;;5055482;28;20501;-84
2021/11/25 05:15:41;;;;;;;90.93;40.00;;;6.40;99.90;;;;;;5055473;28;20095;-84
2021/11/25 05:18:08;;;;;;;96.93;40.63;;;6.40;99.90;;;;;;5055400;28;20051;-84
2021/11/25 05:20:35;;;;;;;92.03;41.22;;;6.40;99.90;;;;;;5055933;28;20386;-83
2021/11/25 05:23:01;;;;;;;92.55;40.40;;;6.40;99.90;;;;;;5055287;28;20048;-85
2021/11/25 05:25:26;;;;;;;96.55;43.00;;;6.40;99.90;;;;;;5056020;28;20044;-82
2021/11/25 05:27:52;;;;;;;99.00;41.83;;;6.40;99.90;;;;;;5054951;28;20504;-85
2021/11/25 05:30:19;;;;;;;102.20;42.55;;;6.40;99.90;;;;;;5055228;28;20048;-83
2021/11/25 05:32:46;;;;;;;102.68;42.17;;;6.40;99.90;;;;;;5038897;28;20075;-83
2021/11/25 05:35:13;;;;;;;101.65;41.17;;;6.50;99.90;;;;;;5055715;28;20048;-83
2021/11/25 05:37:41;;;;;;;93.15;39.58;;;6.50;99.90;;;;;;5054984;28;20504;-83
2021/11/25 05:40:08;;;;;;;90.63;39.50;;;6.50;99.90;;;;;;5055398;28;20052;-84
2021/11/25 05:42:35;;;;;;;95.72;40.75;;;6.50;99.90;;;;;;5038804;28;20048;-84
2021/11/25 05:45:06;;;;;;;90.20;38.15;;;6.50;99.90;;;;;;5071505;28;20049;-86
2021/11/25 05:47:34;;;;;;;99.95;40.38;;;6.60;99.90;;;;;;5055720;28;20087;-83
2021/11/25 05:50:03;;;;;;;106.35;42.35;;;6.60;99.90;;;;;;5072796;28;20048;-84
2021/11/25 05:52:30;;;;;;;97.80;41.78;;;6.60;99.90;;;;;;5055130;28;20084;-83
2021/11/25 05:54:55;;;;;;;104.90;41.00;;;6.60;99.90;;;;;;5054846;28;20048;-84
2021/11/25 05:57:22;;;;;;;99.82;41.55;;;6.60;99.90;;;;;;5054659;28;20052;-84
2021/11/25 05:59:48;;;;;;;105.55;42.00;;;6.50;99.90;;;;;;5054875;28;20052;-84
2021/11/25 06:02:15;;;;;;;99.40;41.22;;;6.60;99.90;;;;;;5038174;28;20056;-83
2021/11/25 06:04:41;;;;;;;103.28;42.05;;;6.60;99.90;;;;;;5054912;28;20102;-85
2021/11/25 06:07:07;;;;;;;100.80;38.22;;;6.60;99.90;;;;;;5038510;28;20083;-83
2021/11/25 06:09:32;;;;;;;116.65;45.47;;;6.60;99.90;;;;;;5055448;28;20461;-83
2021/11/25 06:11:58;;;;;;;115.30;43.58;;;6.60;99.90;;;;;;5057434;28;20037;-84
2021/11/25 06:14:24;;;;;;;113.45;45.25;;;6.60;99.90;;;;;;5057887;28;20040;-84
2021/11/25 06:16:49;;;;;;;102.35;41.97;;;6.60;99.90;;;;;;5058723;28;20140;-84
2021/11/25 06:19:15;;;;;;;106.80;43.72;;;6.50;99.90;;;;;;5058257;28;20045;-83
2021/11/25 06:21:41;;;;;;;111.85;42.97;;;6.60;99.90;;;;;;5042469;28;20053;-84
2021/11/25 06:24:07;;;;;;;102.45;41.13;;;6.50;99.90;;;;;;5058563;28;20044;-85
2021/11/25 06:26:39;;;;;;;110.20;41.83;;;6.60;99.90;;;;;;5075851;28;20056;-83
2021/11/25 06:29:05;;;;;;;107.10;43.40;;;6.60;99.90;;;;;;5041315;28;20045;-83
2021/11/25 06:31:31;;;;;;;106.78;43.05;;;6.70;99.90;;;;;;5057962;28;20123;-83
2021/11/25 06:33:56;;;;;;;119.32;42.83;;;6.70;99.90;;;;;;5057490;28;20135;-84
2021/11/25 06:36:22;;;;;;;106.50;41.90;;;6.70;99.90;;;;;;5058040;28;20048;-84
2021/11/25 06:38:48;;;;;;;111.50;42.50;;;6.60;99.90;;;;;;5040981;28;20040;-83
2021/11/25 06:41:14;;;;;;;122.03;44.05;;;6.70;99.90;;;;;;5058669;28;20123;-83
2021/11/25 06:43:40;;;;;;;105.93;38.92;;;6.70;99.90;;;;;;5057996;28;20094;-83
2021/11/25 06:46:06;;;;;;;116.50;40.95;;;6.70;99.90;;;;;;5057320;28;20127;-84
2021/11/25 06:48:32;;;;;;;129.50;43.63;;;6.80;99.90;;;;;;5057732;28;20055;-83
2021/11/25 06:50:57;;;;;;;108.95;40.97;;;6.70;99.90;;;;;;5057887;28;20045;-83
2021/11/25 06:53:25;;;;;;;116.18;42.40;;;6.80;99.90;;;;;;5075145;28;20041;-83
2021/11/25 06:55:52;;;;;;;120.85;41.47;;;6.80;99.90;;;;;;5057396;28;20080;-82
2021/11/25 06:58:18;;;;;;;123.65;44.78;;;6.80;99.90;;;;;;5057475;28;20618;-84
2021/11/25 07:00:43;;;;;;;125.38;43.83;;;6.70;99.90;;;;;;5057612;28;20052;-83
2021/11/25 07:03:09;;;;;;;129.55;43.42;;;6.80;99.90;;;;;;5041007;28;20052;-84
2021/11/25 07:05:35;;;;;;;125.45;45.35;;;6.70;99.90;;;;;;5057152;28;20051;-83
2021/11/25 07:08:01;;;;;;;113.78;42.90;;;6.70;99.90;;;;;;5058118;28;20048;-83
2021/11/25 07:10:27;;;;;;;125.65;43.17;;;6.70;99.90;;;;;;5041106;28;20037;-83
2021/11/25 07:12:53;;;;;;;106.35;40.25;;;6.80;99.90;;;;;;5057408;28;20078;-84
2021/11/25 07:15:21;;;;;;;114.57;42.60;;;6.70;99.90;;;;;;5056988;28;20127;-84
2021/11/25 07:17:47;;;;;;;100.90;37.53;;;6.70;99.90;;;;;;5057329;28;20056;-84
2021/11/25 07:20:14;;;;;;;99.40;38.45;;;6.70;99.90;;;;;;5057847;28;20048;-83
2021/11/25 07:22:40;;;;;;;106.93;41.28;;;6.80;99.90;;;;;;5056269;28;20554;-82
2021/11/25 07:25:11;;;;;;;101.88;37.42;;;6.80;99.90;;;;;;5057078;28;20094;-84
2021/11/25 07:27:38;;;;;;;102.30;39.60;;;6.70;99.90;;;;;;5040729;28;20127;-84
2021/11/25 07:30:06;;;;;;;109.93;41.67;;;6.80;99.90;;;;;;5057100;28;20095;-87
2021/11/25 07:32:32;;;;;;;110.55;41.67;;;6.80;99.90;;;;;;5057093;28;20084;-84
2021/11/25 07:34:58;;;;;;;104.28;40.58;;;6.80;99.90;;;;;;5041167;28;20103;-84
2021/11/25 07:37:23;;;;;;;102.60;37.22;;;6.80;99.90;;;;;;5056363;28;20123;-83
2021/11/25 07:39:49;;;;;;;111.20;42.17;;;6.90;99.90;;;;;;5056305;28;20036;-84
2021/11/25 07:42:15;;;;;;;108.32;41.10;;;6.90;99.90;;;;;;5056689;28;20084;-83
2021/11/25 07:44:42;;;;;;;116.32;43.08;;;6.90;99.90;;;;;;5040460;28;20055;-85
2021/11/25 07:47:08;;;;;;;107.75;40.70;;;6.90;99.90;;;;;;5040014;28;20049;-85
2021/11/25 07:49:34;;;;;;;115.38;41.30;;;6.90;99.90;;;;;;5056563;28;20193;-84
2021/11/25 07:52:00;;;;;;;115.88;42.58;;;6.90;99.90;;;;;;5040188;28;20066;-85
2021/11/25 07:54:27;;;;;;;108.53;40.85;;;6.90;99.90;;;;;;5056576;28;20084;-84
2021/11/25 07:56:53;;;;;;;114.82;42.22;;;6.90;99.90;;;;;;5047605;28;20049;-86
2021/11/25 07:59:19;;;;;;;111.93;41.28;;;6.90;99.90;;;;;;5020118;28;20075;-85
2021/11/25 08:01:45;;;;;;;92.88;39.30;;;6.90;99.90;;;;;;5036188;28;20481;-85
2021/11/25 08:04:11;;;;;;;96.32;38.03;;;6.90;99.90;;;;;;5036766;28;20099;-85
2021/11/25 08:06:37;;;;;;;85.47;34.85;;;7.00;99.90;;;;;;5037285;28;20052;-85
2021/11/25 08:09:03;;;;;;;79.00;34.10;;;7.00;99.90;;;;;;5035887;28;20132;-84
2021/11/25 08:11:29;;;;;;;83.35;35.90;;;7.00;99.90;;;;;;5020616;28;20057;-85
2021/11/25 08:13:55;;;;;;;82.68;35.30;;;7.10;99.90;;;;;;5037185;28;20045;-85
2021/11/25 08:16:21;;;;;;;72.13;33.20;;;7.00;99.90;;;;;;5036123;28;20045;-85
2021/11/25 08:18:46;;;;;;;66.80;31.73;;;7.10;99.90;;;;;;5036065;28;20037;-85
2021/11/25 08:21:13;;;;;;;67.30;32.05;;;7.10;99.90;;;;;;5053588;28;20053;-85
2021/11/25 08:23:39;;;;;;;71.65;31.92;;;7.10;99.90;;;;;;5036244;28;20068;-85
2021/11/25 08:26:07;;;;;;;63.80;29.42;;;7.10;99.90;;;;;;5052634;28;20474;-87
2021/11/25 08:28:34;;;;;;;69.93;31.13;;;7.20;99.90;;;;;;5055864;28;20071;-84
2021/11/25 08:31:00;;;;;;;64.93;31.05;;;7.30;99.90;;;;;;5039405;28;20052;-85
2021/11/25 08:33:26;;;;;;;63.58;30.98;;;7.30;99.90;;;;;;5073229;28;20048;-87
2021/11/25 08:35:52;;;;;;;67.97;30.73;;;7.30;99.90;;;;;;5056589;28;20037;-86
2021/11/25 08:38:17;;;;;;;62.75;29.30;;;7.30;99.90;;;;;;5056399;28;20458;-86
2021/11/25 08:40:43;;;;;;;68.72;31.63;;;7.40;99.90;;;;;;5055927;28;20542;-86
2021/11/25 08:43:09;;;;;;;69.22;31.63;;;7.40;99.90;;;;;;5055707;28;20420;-87
2021/11/25 08:45:35;;;;;;;72.47;32.53;;;7.40;99.90;;;;;;5056636;28;20361;-86
2021/11/25 08:48:02;;;;;;;61.42;30.55;;;7.40;99.90;;;;;;5055662;28;20486;-86
2021/11/25 08:50:29;;;;;;;61.80;28.60;;;7.40;99.90;;;;;;5039237;28;20534;-85
2021/11/25 08:52:55;;;;;;;56.60;26.13;;;7.40;99.90;;;;;;5038967;28;20452;-86
2021/11/25 08:55:20;;;;;;;53.42;25.83;;;7.40;99.90;;;;;;5055430;28;20443;-86
2021/11/25 08:57:46;;;;;;;55.00;25.38;;;7.50;99.90;;;;;;5055318;28;20469;-86
2021/11/25 09:00:14;;;;;;;56.42;27.00;;;7.50;99.90;;;;;;5055821;28;20049;-87
2021/11/25 09:02:40;;;;;;;60.42;27.08;;;7.50;99.90;;;;;;5055560;28;20059;-86
2021/11/25 09:05:11;;;;;;;54.00;25.05;;;7.50;99.90;;;;;;5055697;28;20135;-87
2021/11/25 09:07:39;;;;;;;47.25;22.92;;;7.50;99.90;;;;;;5055646;28;20051;-86
2021/11/25 09:10:05;;;;;;;46.45;22.38;;;7.60;99.90;;;;;;5038805;28;20053;-85
2021/11/25 09:12:31;;;;;;;43.20;20.27;;;7.60;99.90;;;;;;5055460;28;20098;-86
2021/11/25 09:14:57;;;;;;;43.92;23.15;;;7.60;99.90;;;;;;5055182;28;20041;-87
2021/11/25 09:17:22;;;;;;;41.83;20.55;;;7.70;99.90;;;;;;5073058;28;20048;-86
2021/11/25 09:19:48;;;;;;;38.28;19.55;;;7.70;99.90;;;;;;5056255;28;20049;-86
2021/11/25 09:22:15;;;;;;;43.60;21.10;;;7.70;99.90;;;;;;5056028;28;20051;-86
2021/11/25 09:24:41;;;;;;;39.08;19.77;;;7.70;99.90;;;;;;5056907;28;20056;-87
2021/11/25 09:27:07;;;;;;;31.63;16.23;;;7.80;99.90;;;;;;5054767;28;20512;-89
2021/11/25 09:29:33;;;;;;;25.77;13.63;;;7.80;99.90;;;;;;5055269;28;20044;-88
2021/11/25 09:31:58;;;;;;;24.17;12.27;;;7.90;99.90;;;;;;5055001;28;20048;-87
2021/11/25 09:34:24;;;;;;;19.15;10.43;;;7.90;99.90;;;;;;5055530;28;20048;-88
2021/11/25 09:36:50;;;;;;;20.67;8.20;;;7.90;99.90;;;;;;5038740;28;20477;-87
2021/11/25 09:39:16;;;;;;;17.02;7.78;;;8.00;99.90;;;;;;5055400;28;20136;-87
2021/11/25 09:41:42;;;;;;;15.35;6.82;;;8.00;99.90;;;;;;5055282;28;20052;-88
2021/11/25 09:44:08;;;;;;;12.38;5.78;;;8.00;99.90;;;;;;5054934;28;20055;-89
2021/11/25 09:46:36;;;;;;;9.23;3.70;;;8.10;99.90;;;;;;5057096;28;20045;-87
2021/11/25 09:49:03;;;;;;;12.60;3.55;;;8.10;99.90;;;;;;5058839;28;20481;-87
2021/11/25 09:51:29;;;;;;;6.90;2.30;;;8.10;99.90;;;;;;5042281;28;20059;-86
2021/11/25 09:53:55;;;;;;;11.55;2.10;;;8.20;99.90;;;;;;5058319;28;20036;-88
2021/11/25 09:56:22;;;;;;;9.10;1.80;;;8.20;99.90;;;;;;5058602;28;20183;-87
2021/11/25 09:58:50;;;;;;;8.32;1.52;;;8.20;99.90;;;;;;5059703;28;20374;-88
2021/11/25 10:01:20;;;;;;;8.07;1.85;;;8.30;99.90;;;;;;5042151;28;20059;-88
2021/11/25 10:03:49;;;;;;;9.70;1.73;;;8.30;99.90;;;;;;5058582;28;20045;-87
2021/11/25 10:06:20;;;;;;;4.55;1.40;;;8.30;99.90;;;;;;5058601;28;20056;-87
2021/11/25 10:08:52;;;;;;;6.47;1.20;;;8.30;99.90;;;;;;5042597;28;20045;-87
2021/11/25 10:11:31;;;;;;;9.98;1.92;;;8.30;99.90;;;;;;5076849;28;20056;-87
2021/11/25 10:14:02;;;;;;;7.93;1.42;;;8.40;99.90;;;;;;5058624;28;20139;-87
2021/11/25 10:16:31;;;;;;;7.43;1.20;;;8.40;99.90;;;;;;5059219;28;20079;-87
2021/11/25 10:19:22;;;;;;;6.35;1.45;;;8.50;99.90;;;;;;5058765;28;20070;-88
2021/11/25 10:21:53;;;;;;;8.70;1.50;;;8.60;99.90;;;;;;5059306;28;20110;-87
2021/11/25 10:24:45;;;;;;;10.25;1.20;;;8.60;99.90;;;;;;5058649;28;20040;-87
2021/11/25 10:27:21;;;;;;;5.15;1.38;;;8.70;99.90;;;;;;5059078;28;20369;-89
2021/11/25 10:30:07;;;;;;;7.75;1.63;;;8.70;99.90;;;;;;5058301;28;20044;-87
2021/11/25 10:32:33;;;;;;;6.75;1.52;;;8.70;99.90;;;;;;5058777;28;20049;-88
2021/11/25 10:35:26;;;;;;;8.63;1.80;;;8.80;99.90;;;;;;5041562;28;20050;-87
2021/11/25 10:38:20;;;;;;;6.82;1.58;;;8.80;99.90;;;;;;5058950;28;20102;-87
2021/11/25 10:40:37;;;;;;;7.55;1.42;;;8.90;99.90;;;;;;5057398;28;20416;-87
2021/11/25 10:43:23;;;;;;;7.30;1.30;;;8.90;99.90;;;;;;5075669;28;20052;-87
2021/11/25 10:45:53;;;;;;;4.43;1.42;;;8.90;99.90;;;;;;5058847;28;20135;-87
2021/11/25 10:48:35;;;;;;;5.15;1.30;;;8.90;99.90;;;;;;5057763;28;20073;-87
2021/11/25 10:51:25;;;;;;;8.20;1.50;;;8.90;99.90;;;;;;5041376;28;20064;-87
2021/11/25 10:54:20;;;;;;;10.65;1.20;;;8.80;99.90;;;;;;5041069;28;20048;-86
2021/11/25 10:56:49;;;;;;;9.85;1.20;;;8.90;99.90;;;;;;5040027;28;20055;-86
2021/11/25 10:59:18;;;;;;;6.63;1.30;;;8.90;99.90;;;;;;5057825;28;20044;-87
2021/11/25 11:01:47;;;;;;;8.18;1.38;;;8.80;99.90;;;;;;5041344;28;20051;-87
2021/11/25 11:04:14;;;;;;;9.40;1.50;;;8.70;99.90;;;;;;5057540;28;20409;-88
2021/11/25 11:06:41;;;;;;;8.32;1.50;;;8.70;99.90;;;;;;5041067;28;20048;-87
2021/11/25 11:09:27;;;;;;;12.05;1.67;;;8.80;99.90;;;;;;5057751;28;20080;-84
2021/11/25 11:12:25;;;;;;;6.18;1.20;;;8.80;99.90;;;;;;5057896;28;20107;-87
2021/11/25 11:14:55;;;;;;;8.00;1.60;;;8.90;99.90;;;;;;5057814;28;20127;-87
2021/11/25 11:17:29;;;;;;;7.07;1.40;;;9.00;99.90;;;;;;5040499;28;20052;-87
2021/11/25 11:20:21;;;;;;;5.72;1.10;;;9.10;99.90;;;;;;5041091;28;20139;-87
2021/11/25 11:22:59;;;;;;;7.43;1.70;;;9.20;99.90;;;;;;5038670;28;20056;-86
2021/11/25 11:25:26;;;;;;;7.45;1.20;;;9.20;99.90;;;;;;5041439;28;20055;-87
2021/11/25 11:27:54;;;;;;;5.07;1.00;;;9.20;99.90;;;;;;5074828;28;20097;-86
2021/11/25 11:30:21;;;;;;;7.80;1.20;;;9.30;99.90;;;;;;5056998;28;20053;-87
2021/11/25 11:32:47;;;;;;;4.63;1.33;;;9.40;99.90;;;;;;5057172;28;20080;-87
2021/11/25 11:35:15;;;;;;;8.57;1.88;;;9.50;99.90;;;;;;5057315;28;20469;-89
2021/11/25 11:37:42;;;;;;;5.97;1.67;;;9.60;99.90;;;;;;5040290;28;20526;-89
2021/11/25 11:40:09;;;;;;;6.28;1.20;;;9.70;99.90;;;;;;5040088;28;20095;-86
2021/11/25 11:42:35;;;;;;;6.93;1.02;;;9.70;99.90;;;;;;5057075;28;20053;-85
2021/11/25 11:45:02;;;;;;;5.95;1.38;;;9.60;99.90;;;;;;5057085;28;20128;-86
2021/11/25 11:47:29;;;;;;;7.65;1.10;;;9.60;99.90;;;;;;5056737;28;20048;-86
2021/11/25 11:50:01;;;;;;;11.60;1.42;;;9.50;99.90;;;;;;5057548;28;20135;-86
2021/11/25 11:52:27;;;;;;;5.60;1.35;;;9.50;99.90;;;;;;5057264;28;20393;-89
2021/11/25 11:54:57;;;;;;;7.53;1.25;;;9.40;99.90;;;;;;5056522;28;20041;-86
2021/11/25 11:57:42;;;;;;;7.10;1.50;;;9.50;99.90;;;;;;5039507;28;20129;-88
2021/11/25 12:00:20;;;;;;;3.92;0.85;;;9.60;99.90;;;;;;5057221;28;20500;-88
2021/11/25 12:02:49;;;;;;;6.53;1.20;;;9.50;99.90;;;;;;5056513;28;20098;-86
2021/11/25 12:05:43;;;;;;;4.63;1.20;;;9.40;99.90;;;;;;5056155;28;20048;-87
2021/11/25 12:08:21;;;;;;;4.82;0.90;;;9.40;99.90;;;;;;5055717;28;20055;-86
2021/11/25 12:10:56;;;;;;;6.57;1.30;;;9.30;99.90;;;;;;5056485;28;20071;-87
2021/11/25 12:13:25;;;;;;;4.10;1.00;;;9.20;99.90;;;;;;5056787;28;20135;-86
2021/11/25 12:15:51;;;;;;;5.68;1.17;;;9.10;99.90;;;;;;5039529;28;20436;-86
2021/11/25 12:18:33;;;;;;;6.18;1.27;;;9.00;99.90;;;;;;5056228;28;20048;-86
2021/11/25 12:21:04;;;;;;;8.85;1.33;;;9.10;99.90;;;;;;5039489;28;20048;-85
2021/11/25 12:23:38;;;;;;;6.35;1.17;;;9.10;99.90;;;;;;5056325;28;20041;-86
2021/11/25 12:26:06;;;;;;;7.03;1.30;;;9.20;99.90;;;;;;5039736;28;20131;-86
2021/11/25 12:28:40;;;;;;;4.35;1.20;;;9.20;99.90;;;;;;5056060;28;20048;-87
2021/11/25 12:33:46;;;;;;;6.45;1.10;;;9.30;99.90;;;;;;5056885;28;20052;-87
2021/11/25 12:36:40;;;;;;;3.97;1.08;;;9.40;99.90;;;;;;5056171;28;20056;-88
2021/11/25 12:39:37;;;;;;;7.28;1.20;;;9.60;99.90;;;;;;5056066;28;20374;-86
2021/11/25 12:42:03;;;;;;;8.80;1.27;;;9.70;99.90;;;;;;5055842;28;20056;-87
2021/11/25 12:44:28;;;;;;;6.03;1.08;;;9.70;99.90;;;;;;5073482;28;20047;-87
2021/11/25 12:46:54;;;;;;;8.27;1.40;;;9.80;99.90;;;;;;5056060;28;20040;-88
2021/11/25 12:49:20;;;;;;;8.45;1.35;;;9.60;99.90;;;;;;5038699;28;20040;-88
2021/11/25 12:51:45;;;;;;;10.85;1.60;;;9.60;99.90;;;;;;5039219;28;20040;-87
2021/11/25 12:54:13;;;;;;;5.82;1.30;;;9.60;99.90;;;;;;5055293;28;20406;-87